createdAt,value
2023-04-30T00:03:17.453Z,7.40
2023-04-30T00:08:25.084Z,7.65
2023-04-30T00:13:32.879Z,6.97
2023-04-30T00:18:39.300Z,6.07
2023-04-30T00:23:46.424Z,6.40
2023-04-30T00:28:54.156Z,6.03
2023-04-30T00:34:00.583Z,5.55
2023-04-30T00:39:07.008Z,5.65
2023-04-30T00:44:14.853Z,5.90
2023-04-30T00:49:21.384Z,6.80
2023-04-30T00:54:28.260Z,5.75
2023-04-30T00:59:36.383Z,7.13
2023-04-30T01:04:43.000Z,5.90
2023-04-30T01:09:49.754Z,6.85
2023-04-30T01:15:20.757Z,8.43
2023-04-30T01:20:30.834Z,7.22
2023-04-30T01:25:54.016Z,5.85
2023-04-30T01:31:02.965Z,5.13
2023-04-30T01:36:32.192Z,5.38
2023-04-30T01:47:04.128Z,7.68
2023-04-30T01:52:22.627Z,6.60
2023-04-30T01:57:34.806Z,8.48
2023-04-30T02:02:43.105Z,6.47
2023-04-30T02:07:52.425Z,7.03
2023-04-30T02:12:59.295Z,8.40
2023-04-30T02:18:08.457Z,7.20
2023-04-30T02:23:15.280Z,7.45
2023-04-30T02:28:21.761Z,8.73
2023-04-30T02:33:29.569Z,8.82
2023-04-30T02:38:36.270Z,8.13
2023-04-30T02:43:42.542Z,7.78
2023-04-30T02:48:50.252Z,7.65
2023-04-30T02:53:56.634Z,7.30
2023-04-30T02:59:02.763Z,7.05
2023-04-30T03:04:10.527Z,7.32
2023-04-30T03:09:16.968Z,7.45
2023-04-30T03:14:24.056Z,6.78
2023-04-30T03:19:32.124Z,7.10
2023-04-30T03:24:38.636Z,7.05
2023-04-30T03:29:44.952Z,6.35
2023-04-30T03:34:52.874Z,6.45
2023-04-30T03:39:59.265Z,7.70
2023-04-30T03:45:07.460Z,7.07
2023-04-30T03:50:15.438Z,8.15
2023-04-30T03:55:22.296Z,7.95
2023-04-30T04:00:28.936Z,7.40
2023-04-30T04:05:36.908Z,7.40
2023-04-30T04:10:43.748Z,9.18
2023-04-30T04:15:50.088Z,7.47
2023-04-30T04:20:58.291Z,7.13
2023-04-30T04:26:04.936Z,8.27
2023-04-30T04:31:11.813Z,8.60
2023-04-30T04:36:19.707Z,8.57
2023-04-30T04:41:26.991Z,8.35
2023-04-30T04:46:34.346Z,8.57
2023-04-30T04:51:42.552Z,8.20
2023-04-30T04:56:49.266Z,7.72
2023-04-30T05:01:55.961Z,7.57
2023-04-30T05:07:04.672Z,7.93
2023-04-30T05:12:10.896Z,9.13
2023-04-30T05:17:17.216Z,7.30
2023-04-30T05:22:25.346Z,7.70
2023-04-30T05:27:31.847Z,7.03
2023-04-30T05:32:38.668Z,7.70
2023-04-30T05:37:46.819Z,6.72
2023-04-30T05:42:52.961Z,6.22
2023-04-30T05:47:59.530Z,6.35
2023-04-30T05:53:07.764Z,5.30
2023-04-30T05:58:14.429Z,5.35
2023-04-30T06:03:21.492Z,4.50
2023-04-30T06:08:30.072Z,4.38
2023-04-30T06:13:36.516Z,4.20
2023-04-30T06:18:42.819Z,4.32
2023-04-30T06:23:50.636Z,4.03
2023-04-30T06:28:57.024Z,4.15
2023-04-30T06:34:03.624Z,4.15
2023-04-30T06:39:13.042Z,4.80
2023-04-30T06:44:19.699Z,3.53
2023-04-30T06:49:26.219Z,2.80
2023-04-30T06:54:34.384Z,4.05
2023-04-30T06:59:41.128Z,3.00
2023-04-30T07:04:47.866Z,2.80
2023-04-30T07:09:56.418Z,2.20
2023-04-30T07:15:04.274Z,3.33
2023-04-30T07:20:16.486Z,2.58
2023-04-30T07:25:24.806Z,2.10
2023-04-30T07:30:31.308Z,2.43
2023-04-30T07:35:38.156Z,2.22
2023-04-30T07:40:46.616Z,2.10
2023-04-30T07:45:54.674Z,2.37
2023-04-30T07:51:01.225Z,2.20
2023-04-30T07:56:09.874Z,1.52
2023-04-30T08:01:17.217Z,1.40
2023-04-30T08:06:23.946Z,1.88
2023-04-30T08:11:31.966Z,1.88
2023-04-30T08:16:38.580Z,1.58
2023-04-30T08:21:45.571Z,2.33
2023-04-30T08:26:54.850Z,1.35
2023-04-30T08:32:06.217Z,1.55
2023-04-30T08:37:12.772Z,2.00
2023-04-30T08:42:23.806Z,2.00
2023-04-30T08:47:30.777Z,1.70
2023-04-30T08:52:39.094Z,1.85
2023-04-30T08:57:47.764Z,1.60
2023-04-30T09:02:54.820Z,1.57
2023-04-30T09:08:04.090Z,1.52
2023-04-30T09:13:14.355Z,2.15
2023-04-30T09:18:22.192Z,1.27
2023-04-30T09:23:29.400Z,1.20
2023-04-30T09:28:37.415Z,1.70
2023-04-30T09:33:48.949Z,1.50
2023-04-30T09:38:55.847Z,1.40
2023-04-30T09:44:04.586Z,1.42
2023-04-30T09:49:15.257Z,1.10
2023-04-30T09:54:24.660Z,1.20
2023-04-30T09:59:35.670Z,0.80
2023-04-30T10:04:46.075Z,1.15
2023-04-30T10:09:58.856Z,1.30
2023-04-30T10:15:16.658Z,1.33
2023-04-30T10:20:27.627Z,1.23
2023-04-30T10:25:35.753Z,1.00
2023-04-30T10:30:44.864Z,1.17
2023-04-30T10:41:08.238Z,0.93
2023-04-30T10:46:25.288Z,1.35
2023-04-30T10:51:52.083Z,1.13
2023-04-30T10:57:14.583Z,1.17
2023-04-30T11:02:23.888Z,0.82
2023-04-30T11:07:31.749Z,0.98
2023-04-30T11:12:42.621Z,1.40
2023-04-30T11:17:52.085Z,0.80
2023-04-30T11:23:19.627Z,0.77
2023-04-30T11:28:36.406Z,1.00
2023-04-30T11:33:44.786Z,1.97
2023-04-30T11:38:53.723Z,1.10
2023-04-30T11:44:00.259Z,0.80
2023-04-30T11:49:09.999Z,0.90
2023-04-30T11:54:18.965Z,1.42
2023-04-30T11:59:25.854Z,0.73
2023-04-30T12:04:34.618Z,1.05
2023-04-30T12:09:55.654Z,0.85
2023-04-30T12:15:14.955Z,0.90
2023-04-30T12:20:24.341Z,0.80
2023-04-30T12:25:32.507Z,0.90
2023-04-30T12:30:39.286Z,1.17
2023-04-30T12:35:48.087Z,0.60
2023-04-30T12:46:01.544Z,0.80
2023-04-30T12:51:10.608Z,1.15
2023-04-30T12:56:19.007Z,0.90
2023-04-30T13:01:26.218Z,0.83
2023-04-30T13:06:35.735Z,1.20
2023-04-30T13:11:43.325Z,0.57
2023-04-30T13:16:49.896Z,0.98
2023-04-30T13:22:00.998Z,0.68
2023-04-30T13:27:07.727Z,0.73
2023-04-30T13:32:14.380Z,0.93
2023-04-30T13:37:22.763Z,0.80
2023-04-30T13:42:29.548Z,0.80
2023-04-30T13:47:38.517Z,0.88
2023-04-30T13:57:52.846Z,1.42
2023-04-30T14:02:59.725Z,0.80
2023-04-30T14:08:08.658Z,0.68
2023-04-30T14:13:15.565Z,1.08
2023-04-30T14:18:23.135Z,0.50
2023-04-30T14:23:31.556Z,0.80
2023-04-30T14:28:38.148Z,0.77
2023-04-30T14:33:44.701Z,0.70
2023-04-30T14:38:52.755Z,0.80
2023-04-30T14:43:59.699Z,0.70
2023-04-30T14:49:06.771Z,0.93
2023-04-30T14:54:15.527Z,0.70
2023-04-30T14:59:22.129Z,1.15
2023-04-30T15:04:28.883Z,1.30
2023-04-30T15:09:37.173Z,0.90
2023-04-30T15:14:44.451Z,0.80
2023-04-30T15:19:52.343Z,0.80
2023-04-30T15:25:00.757Z,0.90
2023-04-30T15:35:16.661Z,0.67
2023-04-30T15:40:25.014Z,0.90
2023-04-30T15:45:32.661Z,1.00
2023-04-30T15:50:39.360Z,0.82
2023-04-30T15:55:48.220Z,1.38
2023-04-30T16:00:55.082Z,1.10
2023-04-30T16:06:03.212Z,0.90
2023-04-30T16:11:11.446Z,0.97
2023-04-30T16:16:18.368Z,1.00
2023-04-30T16:21:25.590Z,1.17
2023-04-30T16:26:35.176Z,1.10
2023-04-30T16:31:42.514Z,1.60
2023-04-30T16:36:49.565Z,1.20
2023-04-30T16:41:57.872Z,1.25
2023-04-30T16:47:05.119Z,1.33
2023-04-30T16:52:12.992Z,1.40
2023-04-30T16:57:21.461Z,1.83
2023-04-30T17:02:28.465Z,1.50
2023-04-30T17:07:35.831Z,1.10
2023-04-30T17:12:44.450Z,1.40
2023-04-30T17:17:52.463Z,1.20
2023-04-30T17:22:59.545Z,1.67
2023-04-30T17:28:08.435Z,1.35
2023-04-30T17:33:18.971Z,1.60
2023-04-30T17:43:35.653Z,2.08
2023-04-30T17:48:42.948Z,1.70
2023-04-30T17:53:50.998Z,2.55
2023-04-30T17:59:00.976Z,1.88
2023-04-30T18:04:11.254Z,1.80
2023-04-30T18:09:19.192Z,1.73
2023-04-30T18:14:28.985Z,1.95
2023-04-30T18:19:39.138Z,9.85
2023-04-30T18:24:47.615Z,10.85
2023-04-30T18:29:59.437Z,10.55
2023-04-30T18:35:07.216Z,7.65
2023-04-30T18:40:16.013Z,5.57
2023-04-30T18:45:28.111Z,5.03
2023-04-30T18:50:35.893Z,5.32
2023-04-30T18:55:44.011Z,3.15
2023-04-30T19:00:53.248Z,5.50
2023-04-30T19:06:04.869Z,3.88
2023-04-30T19:11:15.684Z,3.53
2023-04-30T19:16:29.773Z,3.78
2023-04-30T19:21:39.174Z,4.20
2023-04-30T19:26:47.726Z,6.93
2023-04-30T19:31:58.664Z,5.43
2023-04-30T19:37:07.642Z,6.07
2023-04-30T19:42:18.373Z,7.65
2023-04-30T19:47:29.728Z,13.50
2023-04-30T19:52:38.903Z,11.02
2023-04-30T19:57:49.300Z,11.60
2023-04-30T20:03:05.008Z,10.65
2023-04-30T20:08:16.203Z,10.52
2023-04-30T20:18:47.624Z,13.95
2023-04-30T20:23:55.989Z,25.83
2023-04-30T20:29:05.429Z,16.92
2023-04-30T20:34:15.015Z,15.73
2023-04-30T20:39:25.094Z,16.50
2023-04-30T20:49:41.618Z,20.20
2023-04-30T20:54:50.427Z,21.70
2023-04-30T20:59:58.117Z,20.30
2023-04-30T21:05:07.719Z,17.67
2023-04-30T21:10:15.518Z,15.80
2023-04-30T21:15:22.881Z,14.55
2023-04-30T21:20:32.535Z,16.17
2023-04-30T21:25:40.421Z,18.20
2023-04-30T21:30:47.648Z,16.17
2023-04-30T21:35:57.657Z,16.38
2023-04-30T21:41:04.702Z,14.35
2023-04-30T21:46:11.645Z,7.40
2023-04-30T21:51:20.047Z,4.45
2023-04-30T21:56:26.800Z,3.70
2023-04-30T22:01:33.979Z,3.50
2023-04-30T22:06:42.698Z,3.35
2023-04-30T22:11:49.912Z,3.78
2023-04-30T22:16:57.257Z,3.70
2023-04-30T22:22:05.963Z,3.70
2023-04-30T22:27:13.059Z,3.70
2023-04-30T22:32:21.867Z,2.85
2023-04-30T22:37:31.750Z,3.13
2023-04-30T22:42:38.561Z,3.17
2023-04-30T22:47:46.193Z,3.97
2023-04-30T22:58:06.550Z,2.92
2023-04-30T23:03:13.580Z,3.88
2023-04-30T23:08:21.930Z,3.00
2023-04-30T23:13:29.026Z,3.10
2023-04-30T23:18:35.663Z,3.60
2023-04-30T23:23:44.524Z,3.38
2023-04-30T23:28:51.628Z,3.55
2023-04-30T23:33:58.434Z,3.40
2023-04-30T23:39:06.704Z,3.55
2023-04-30T23:44:13.813Z,3.35
2023-04-30T23:49:24.763Z,3.38
2023-04-30T23:54:33.249Z,3.75
2023-04-30T23:59:40.153Z,3.30
